La rose des vents
Donnes mto: Semaine 25/02/08 - 02/03/08 (S 9)
Date Horaire Temp. E. Hum. E. P.atmo. Pluie Vent 1mn Direction Ensoleilleme Ev.Tr. Solaire P. de rose Temp au vent Rafales
25/02/2008 00:00 7,3 C 89 % 1026,8 hPa 0,0 l/m 4,4 km/h (1 Bft) O 0,00 h 0,025 mm 0 W/m 5,6 C 6,8 C 5,4 km/h (1 Bft)
25/02/2008 01:00 6,6 C 89 % 1026,5 hPa 0,0 l/m 6,2 km/h (2 Bft) O-NO 0,00 h 0,025 mm 0 W/m 4,9 C 5,6 C 7,9 km/h (2 Bft)
25/02/2008 02:00 6,6 C 86 % 1026,0 hPa 0,0 l/m 4,0 km/h (1 Bft) O-NO 0,00 h 0,025 mm 0 W/m 4,5 C 6,2 C 5,5 km/h (1 Bft)
25/02/2008 03:00 6,7 C 86 % 1025,6 hPa 0,0 l/m 1,1 km/h (1 Bft) O-NO 0,00 h 0,025 mm 0 W/m 4,5 C 6,7 C 1,9 km/h (1 Bft)
25/02/2008 04:00 6,5 C 86 % 1025,3 hPa 0,0 l/m 0,1 km/h (0 Bft) O-NO 0,00 h 0,025 mm 0 W/m 4,4 C 6,5 C 0,3 km/h (0 Bft)
25/02/2008 05:00 6,4 C 87 % 1025,1 hPa 0,0 l/m 2,4 km/h (1 Bft) O-NO 0,00 h 0,000 mm 0 W/m 4,3 C 6,4 C 3,4 km/h (1 Bft)
25/02/2008 06:00 6,2 C 86 % 1025,1 hPa 0,0 l/m 3,2 km/h (1 Bft) O-NO 0,00 h 0,025 mm 0 W/m 4,1 C 6,1 C 4,3 km/h (1 Bft)
25/02/2008 07:00 6,6 C 86 % 1025,3 hPa 0,0 l/m 2,8 km/h (1 Bft) O-NO 0,02 h 0,000 mm 19 W/m 4,5 C 6,6 C 4,0 km/h (1 Bft)
25/02/2008 08:00 8,1 C 85 % 1025,5 hPa 0,0 l/m 1,8 km/h (1 Bft) O-NO 0,70 h 0,025 mm 142 W/m 5,6 C 8,1 C 3,5 km/h (1 Bft)
25/02/2008 09:00 9,7 C 83 % 1025,5 hPa 0,0 l/m 0,4 km/h (0 Bft) O-NO 0,35 h 0,076 mm 187 W/m 6,9 C 9,7 C 1,2 km/h (1 Bft)
25/02/2008 10:00 11,5 C 79 % 1025,4 hPa 0,0 l/m 3,5 km/h (1 Bft) E 0,83 h 0,102 mm 389 W/m 7,9 C 11,5 C 5,7 km/h (1 Bft)
25/02/2008 11:00 11,9 C 77 % 1025,3 hPa 0,0 l/m 4,3 km/h (1 Bft) E-SE 0,85 h 0,203 mm 395 W/m 8,0 C 11,9 C 7,1 km/h (2 Bft)
25/02/2008 12:00 13,0 C 73 % 1024,9 hPa 0,0 l/m 5,7 km/h (1 Bft) E 0,97 h 0,203 mm 545 W/m 8,3 C 13,0 C 9,4 km/h (2 Bft)
25/02/2008 13:00 12,6 C 74 % 1024,2 hPa 0,0 l/m 6,4 km/h (2 Bft) E 0,35 h 0,279 mm 348 W/m 8,1 C 12,6 C 9,9 km/h (2 Bft)
25/02/2008 14:00 12,0 C 76 % 1023,7 hPa 0,0 l/m 6,0 km/h (2 Bft) E 0,00 h 0,178 mm 166 W/m 7,9 C 12,0 C 8,8 km/h (2 Bft)
25/02/2008 15:00 11,2 C 78 % 1023,4 hPa 0,0 l/m 3,5 km/h (1 Bft) E-SE 0,00 h 0,102 mm 77 W/m 7,5 C 11,2 C 5,3 km/h (1 Bft)
25/02/2008 16:00 10,9 C 80 % 1023,3 hPa 0,0 l/m 2,9 km/h (1 Bft) E 0,00 h 0,051 mm 52 W/m 7,5 C 10,9 C 4,8 km/h (1 Bft)
25/02/2008 17:00 10,6 C 81 % 1023,3 hPa 0,0 l/m 0,6 km/h (0 Bft) E 0,00 h 0,025 mm 19 W/m 7,4 C 10,6 C 1,2 km/h (1 Bft)
25/02/2008 18:00 10,1 C 81 % 1023,3 hPa 0,0 l/m 0,0 km/h (0 Bft) N 0,00 h 0,025 mm 0 W/m 7,1 C 10,1 C 0,0 km/h (0 Bft)
25/02/2008 19:00 9,9 C 82 % 1023,4 hPa 0,0 l/m 0,1 km/h (0 Bft) E 0,00 h 0,000 mm 0 W/m 7,0 C 9,9 C 0,3 km/h (0 Bft)
25/02/2008 20:00 9,8 C 83 % 1023,2 hPa 0,0 l/m 0,3 km/h (0 Bft) E 0,00 h 0,025 mm 0 W/m 7,0 C 9,8 C 1,1 km/h (1 Bft)
25/02/2008 21:00 9,9 C 82 % 1023,3 hPa 0,0 l/m 1,8 km/h (1 Bft) N 0,00 h 0,025 mm 0 W/m 7,1 C 9,9 C 3,5 km/h (1 Bft)
25/02/2008 22:00 10,0 C 81 % 1023,5 hPa 0,0 l/m 0,5 km/h (0 Bft) N 0,00 h 0,025 mm 0 W/m 6,9 C 10,0 C 0,8 km/h (0 Bft)
25/02/2008 23:00 10,0 C 80 % 1023,4 hPa 0,0 l/m 0,8 km/h (0 Bft) N 0,00 h 0,025 mm 0 W/m 6,8 C 10,0 C 1,4 km/h (1 Bft)
26/02/2008 00:00 10,3 C 78 % 1023,0 hPa 0,0 l/m 3,5 km/h (1 Bft) N-NO 0,00 h 0,025 mm 0 W/m 6,6 C 10,3 C 6,2 km/h (2 Bft)
26/02/2008 01:00 10,1 C 78 % 1022,5 hPa 0,0 l/m 4,1 km/h (1 Bft) N-NO 0,00 h 0,025 mm 0 W/m 6,5 C 10,1 C 6,9 km/h (2 Bft)
26/02/2008 02:00 10,0 C 79 % 1022,0 hPa 0,0 l/m 1,5 km/h (1 Bft) N-NO 0,00 h 0,025 mm 0 W/m 6,4 C 10,0 C 2,8 km/h (1 Bft)
26/02/2008 03:00 9,8 C 79 % 1021,5 hPa 0,0 l/m 1,2 km/h (1 Bft) N-NO 0,00 h 0,025 mm 0 W/m 6,4 C 9,8 C 2,3 km/h (1 Bft)
26/02/2008 04:00 9,7 C 80 % 1021,2 hPa 0,0 l/m 0,4 km/h (0 Bft) N-NO 0,00 h 0,025 mm 0 W/m 6,4 C 9,7 C 0,7 km/h (0 Bft)
26/02/2008 05:00 9,6 C 81 % 1021,1 hPa 0,0 l/m 2,0 km/h (1 Bft) N-NO 0,00 h 0,025 mm 0 W/m 6,5 C 9,6 C 3,0 km/h (1 Bft)
26/02/2008 06:00 9,8 C 81 % 1021,1 hPa 0,0 l/m 1,5 km/h (1 Bft) N-NO 0,00 h 0,025 mm 0 W/m 6,6 C 9,8 C 3,0 km/h (1 Bft)
26/02/2008 07:00 9,5 C 81 % 1021,2 hPa 0,0 l/m 0,2 km/h (0 Bft) N-NO 0,00 h 0,025 mm 8 W/m 6,4 C 9,5 C 0,7 km/h (0 Bft)
26/02/2008 08:00 9,7 C 82 % 1021,6 hPa 0,0 l/m 0,0 km/h (0 Bft) N-NO 0,00 h 0,000 mm 38 W/m 6,8 C 9,7 C 0,2 km/h (0 Bft)
26/02/2008 09:00 10,6 C 80 % 1021,6 hPa 0,0 l/m 0,0 km/h (0 Bft) N 0,00 h 0,025 mm 89 W/m 7,3 C 10,6 C 0,0 km/h (0 Bft)
26/02/2008 10:00 11,2 C 77 % 1021,6 hPa 0,0 l/m 1,7 km/h (1 Bft) NO 0,00 h 0,051 mm 134 W/m 7,3 C 11,2 C 2,7 km/h (1 Bft)
26/02/2008 11:00 11,9 C 77 % 1021,4 hPa 0,0 l/m 3,7 km/h (1 Bft) S-SE 0,00 h 0,076 mm 195 W/m 8,1 C 11,9 C 6,3 km/h (2 Bft)
26/02/2008 12:00 12,5 C 76 % 1020,7 hPa 0,0 l/m 4,8 km/h (1 Bft) E-NE 0,00 h 0,102 mm 178 W/m 8,4 C 12,5 C 7,4 km/h (2 Bft)
26/02/2008 13:00 12,4 C 79 % 1019,8 hPa 0,0 l/m 5,9 km/h (2 Bft) NE 0,00 h 0,102 mm 130 W/m 8,8 C 12,4 C 8,8 km/h (2 Bft)
26/02/2008 14:00 12,1 C 81 % 1019,0 hPa 0,0 l/m 2,7 km/h (1 Bft) N 0,00 h 0,076 mm 81 W/m 8,9 C 12,1 C 5,4 km/h (1 Bft)
26/02/2008 15:00 11,9 C 82 % 1018,6 hPa 0,0 l/m 1,4 km/h (1 Bft) O 0,00 h 0,051 mm 48 W/m 9,0 C 11,9 C 2,7 km/h (1 Bft)
26/02/2008 16:00 11,7 C 86 % 1018,3 hPa 0,0 l/m 5,5 km/h (1 Bft) S 0,00 h 0,025 mm 32 W/m 9,5 C 11,7 C 8,0 km/h (2 Bft)
26/02/2008 17:00 11,4 C 89 % 1017,9 hPa 0,0 l/m 2,0 km/h (1 Bft) S 0,00 h 0,025 mm 17 W/m 9,7 C 11,4 C 3,6 km/h (1 Bft)
26/02/2008 18:00 11,2 C 91 % 1018,1 hPa 0,0 l/m 4,7 km/h (1 Bft) N-NE 0,00 h 0,025 mm 0 W/m 9,7 C 11,2 C 6,9 km/h (2 Bft)
26/02/2008 19:00 10,9 C 92 % 1018,3 hPa 0,0 l/m 5,2 km/h (1 Bft) N-NE 0,00 h 0,000 mm 0 W/m 9,6 C 10,9 C 8,1 km/h (2 Bft)
26/02/2008 20:00 10,5 C 92 % 1018,1 hPa 0,0 l/m 2,1 km/h (1 Bft) NE 0,00 h 0,025 mm 0 W/m 9,3 C 10,5 C 3,6 km/h (1 Bft)
26/02/2008 21:00 10,5 C 92 % 1018,1 hPa 0,0 l/m 1,3 km/h (1 Bft) NE 0,00 h 0,000 mm 0 W/m 9,3 C 10,5 C 2,1 km/h (1 Bft)
26/02/2008 22:00 10,2 C 92 % 1017,8 hPa 0,0 l/m 2,7 km/h (1 Bft) N-NE 0,00 h 0,000 mm 0 W/m 8,9 C 10,2 C 3,8 km/h (1 Bft)
26/02/2008 23:00 9,9 C 92 % 1017,4 hPa 0,0 l/m 0,9 km/h (0 Bft) N-NE 0,00 h 0,000 mm 0 W/m 8,6 C 9,9 C 1,6 km/h (1 Bft)
27/02/2008 00:00 9,4 C 92 % 1016,9 hPa 0,0 l/m 0,5 km/h (0 Bft) N-NE 0,00 h 0,000 mm 0 W/m 8,1 C 9,4 C 0,9 km/h (0 Bft)
27/02/2008 01:00 9,1 C 93 % 1016,4 hPa 0,0 l/m 1,4 km/h (1 Bft) N-NE 0,00 h 0,000 mm 0 W/m 7,9 C 9,1 C 2,2 km/h (1 Bft)
27/02/2008 02:00 8,7 C 93 % 1015,8 hPa 0,0 l/m 1,4 km/h (1 Bft) N-NE 0,00 h 0,000 mm 0 W/m 7,6 C 8,7 C 2,2 km/h (1 Bft)
27/02/2008 03:00 8,4 C 93 % 1015,1 hPa 0,0 l/m 1,1 km/h (1 Bft) N-NE 0,00 h 0,000 mm 0 W/m 7,3 C 8,4 C 2,3 km/h (1 Bft)
27/02/2008 04:00 8,4 C 93 % 1014,9 hPa 0,0 l/m 2,3 km/h (1 Bft) N-NE 0,00 h 0,000 mm 0 W/m 7,3 C 8,3 C 4,2 km/h (1 Bft)
27/02/2008 05:00 8,2 C 93 % 1015,0 hPa 0,0 l/m 1,6 km/h (1 Bft) N 0,00 h 0,000 mm 0 W/m 7,1 C 8,1 C 3,4 km/h (1 Bft)
27/02/2008 06:00 8,8 C 93 % 1015,2 hPa 0,0 l/m 2,2 km/h (1 Bft) N 0,00 h 0,000 mm 0 W/m 7,7 C 8,8 C 4,7 km/h (1 Bft)
27/02/2008 07:00 8,9 C 93 % 1015,4 hPa 0,0 l/m 3,2 km/h (1 Bft) NO 0,62 h 0,000 mm 45 W/m 7,8 C 8,8 C 5,5 km/h (1 Bft)
27/02/2008 08:00 10,3 C 90 % 1015,9 hPa 0,0 l/m 5,0 km/h (1 Bft) O-NO 1,00 h 0,025 mm 162 W/m 8,7 C 10,1 C 6,8 km/h (2 Bft)
27/02/2008 09:00 12,5 C 77 % 1016,3 hPa 0,0 l/m 2,2 km/h (1 Bft) S-SO 1,00 h 0,076 mm 284 W/m 8,6 C 12,5 C 3,9 km/h (1 Bft)
27/02/2008 10:00 13,3 C 75 % 1016,5 hPa 0,0 l/m 5,2 km/h (1 Bft) S 0,87 h 0,152 mm 410 W/m 9,0 C 13,3 C 8,1 km/h (2 Bft)
27/02/2008 11:00 14,5 C 72 % 1016,5 hPa 0,0 l/m 7,7 km/h (2 Bft) S-SE 0,87 h 0,229 mm 528 W/m 9,4 C 14,5 C 11,4 km/h (2 Bft)
27/02/2008 12:00 15,0 C 70 % 1016,4 hPa 0,0 l/m 7,6 km/h (2 Bft) S-SE 0,52 h 0,305 mm 441 W/m 9,6 C 15,0 C 11,6 km/h (2 Bft)
27/02/2008 13:00 14,0 C 73 % 1016,0 hPa 0,0 l/m 6,0 km/h (2 Bft) S-SE 0,00 h 0,254 mm 191 W/m 9,3 C 14,0 C 9,2 km/h (2 Bft)
27/02/2008 14:00 13,8 C 75 % 1015,5 hPa 0,0 l/m 3,9 km/h (1 Bft) E 0,00 h 0,127 mm 189 W/m 9,5 C 13,8 C 6,7 km/h (2 Bft)
27/02/2008 15:00 13,7 C 77 % 1015,1 hPa 0,0 l/m 5,5 km/h (1 Bft) E 0,00 h 0,102 mm 155 W/m 9,7 C 13,7 C 8,4 km/h (2 Bft)
27/02/2008 16:00 12,9 C 80 % 1015,3 hPa 0,0 l/m 1,9 km/h (1 Bft) E-SE 0,00 h 0,102 mm 66 W/m 9,5 C 12,9 C 3,8 km/h (1 Bft)
27/02/2008 17:00 12,7 C 80 % 1015,6 hPa 0,0 l/m 0,3 km/h (0 Bft) E-SE 0,20 h 0,051 mm 60 W/m 9,3 C 12,7 C 1,0 km/h (0 Bft)
27/02/2008 18:00 12,1 C 81 % 1015,6 hPa 0,0 l/m 0,0 km/h (0 Bft) N 0,00 h 0,025 mm 5 W/m 8,9 C 12,1 C 0,0 km/h (0 Bft)
27/02/2008 19:00 11,8 C 82 % 1016,0 hPa 0,0 l/m 0,0 km/h (0 Bft) N 0,00 h 0,000 mm 0 W/m 8,8 C 11,8 C 0,0 km/h (0 Bft)
27/02/2008 20:00 11,6 C 83 % 1016,4 hPa 0,0 l/m 0,4 km/h (0 Bft) E-SE 0,00 h 0,025 mm 0 W/m 8,8 C 11,6 C 1,3 km/h (1 Bft)
27/02/2008 21:00 11,6 C 86 % 1016,8 hPa 0,0 l/m 3,0 km/h (1 Bft) N-NE 0,00 h 0,025 mm 0 W/m 9,3 C 11,6 C 5,4 km/h (1 Bft)
27/02/2008 22:00 11,6 C 86 % 1017,2 hPa 0,0 l/m 1,0 km/h (0 Bft) N-NE 0,00 h 0,025 mm 0 W/m 9,4 C 11,6 C 2,3 km/h (1 Bft)
27/02/2008 23:00 11,7 C 88 % 1017,5 hPa 0,0 l/m 2,0 km/h (1 Bft) N-NE 0,00 h 0,025 mm 0 W/m 9,7 C 11,7 C 3,7 km/h (1 Bft)
28/02/2008 00:00 11,6 C 88 % 1017,6 hPa 0,0 l/m 0,6 km/h (0 Bft) N-NE 0,00 h 0,025 mm 0 W/m 9,7 C 11,6 C 1,0 km/h (0 Bft)
28/02/2008 01:00 11,4 C 90 % 1017,5 hPa 0,0 l/m 1,8 km/h (1 Bft) N-NE 0,00 h 0,025 mm 0 W/m 9,8 C 11,4 C 2,5 km/h (1 Bft)
28/02/2008 02:00 11,2 C 91 % 1017,6 hPa 0,0 l/m 1,1 km/h (1 Bft) N-NE 0,00 h 0,025 mm 0 W/m 9,8 C 11,2 C 1,7 km/h (1 Bft)
28/02/2008 03:00 11,1 C 92 % 1017,3 hPa 0,0 l/m 3,8 km/h (1 Bft) N-NE 0,00 h 0,000 mm 0 W/m 9,8 C 11,1 C 5,3 km/h (1 Bft)
28/02/2008 04:00 10,9 C 93 % 1017,3 hPa 0,0 l/m 4,0 km/h (1 Bft) O-SO 0,00 h 0,025 mm 0 W/m 9,8 C 10,9 C 5,4 km/h (1 Bft)
28/02/2008 05:00 10,6 C 93 % 1017,9 hPa 0,0 l/m 1,3 km/h (1 Bft) O 0,00 h 0,025 mm 0 W/m 9,5 C 10,6 C 2,1 km/h (1 Bft)
28/02/2008 06:00 10,6 C 94 % 1018,5 hPa 0,0 l/m 2,5 km/h (1 Bft) O 0,00 h 0,000 mm 0 W/m 9,7 C 10,6 C 4,1 km/h (1 Bft)
28/02/2008 07:00 10,3 C 94 % 1018,9 hPa 0,0 l/m 0,2 km/h (0 Bft) O-NO 0,13 h 0,000 mm 31 W/m 9,4 C 10,3 C 0,6 km/h (0 Bft)
28/02/2008 08:00 10,8 C 94 % 1019,8 hPa 0,0 l/m 0,3 km/h (0 Bft) O-NO 0,00 h 0,025 mm 58 W/m 9,8 C 10,8 C 0,7 km/h (0 Bft)
28/02/2008 09:00 11,4 C 94 % 1020,8 hPa 0,0 l/m 1,1 km/h (1 Bft) O-NO 0,00 h 0,025 mm 78 W/m 10,5 C 11,4 C 2,6 km/h (1 Bft)
28/02/2008 10:00 11,7 C 93 % 1021,3 hPa 0,6 l/m 2,2 km/h (1 Bft) N-NE 0,00 h 0,051 mm 62 W/m 10,6 C 11,7 C 4,3 km/h (1 Bft)
28/02/2008 11:00 11,8 C 93 % 1021,6 hPa 0,0 l/m 3,5 km/h (1 Bft) N-NO 0,00 h 0,025 mm 96 W/m 10,7 C 11,8 C 5,8 km/h (2 Bft)
28/02/2008 12:00 13,8 C 87 % 1021,5 hPa 0,0 l/m 2,4 km/h (1 Bft) NO 0,38 h 0,051 mm 355 W/m 11,6 C 13,8 C 4,6 km/h (1 Bft)
28/02/2008 13:00 15,3 C 79 % 1021,2 hPa 0,2 l/m 7,1 km/h (2 Bft) E 0,92 h 0,203 mm 398 W/m 11,6 C 15,3 C 11,5 km/h (2 Bft)
28/02/2008 14:00 14,7 C 79 % 1021,0 hPa 0,0 l/m 4,5 km/h (1 Bft) E 0,72 h 0,254 mm 335 W/m 11,2 C 14,7 C 8,6 km/h (2 Bft)
28/02/2008 15:00 13,8 C 83 % 1021,3 hPa 0,0 l/m 5,5 km/h (1 Bft) E 0,00 h 0,178 mm 187 W/m 10,9 C 13,8 C 8,4 km/h (2 Bft)
28/02/2008 16:00 13,1 C 86 % 1021,4 hPa 0,0 l/m 2,2 km/h (1 Bft) SE 0,00 h 0,102 mm 83 W/m 10,8 C 13,1 C 4,3 km/h (1 Bft)
28/02/2008 17:00 12,5 C 87 % 1021,3 hPa 0,0 l/m 0,5 km/h (0 Bft) SE 0,00 h 0,051 mm 18 W/m 10,4 C 12,5 C 1,5 km/h (1 Bft)
28/02/2008 18:00 12,2 C 88 % 1021,6 hPa 0,0 l/m 0,6 km/h (0 Bft) SE 0,00 h 0,025 mm 5 W/m 10,2 C 12,2 C 1,5 km/h (1 Bft)
28/02/2008 19:00 12,2 C 89 % 1022,1 hPa 0,0 l/m 0,1 km/h (0 Bft) SE 0,00 h 0,000 mm 0 W/m 10,5 C 12,2 C 0,3 km/h (0 Bft)
28/02/2008 20:00 12,0 C 91 % 1022,4 hPa 0,0 l/m 0,0 km/h (0 Bft) N 0,00 h 0,000 mm 0 W/m 10,6 C 12,0 C 0,0 km/h (0 Bft)
28/02/2008 21:00 11,8 C 91 % 1022,5 hPa 0,0 l/m 0,6 km/h (0 Bft) SE 0,00 h 0,000 mm 0 W/m 10,4 C 11,8 C 1,4 km/h (1 Bft)
28/02/2008 22:00 11,7 C 92 % 1022,6 hPa 0,0 l/m 1,8 km/h (1 Bft) SE 0,00 h 0,000 mm 0 W/m 10,4 C 11,7 C 3,8 km/h (1 Bft)
28/02/2008 23:00 11,7 C 92 % 1022,8 hPa 0,0 l/m 2,5 km/h (1 Bft) O 0,00 h 0,000 mm 0 W/m 10,4 C 11,7 C 4,2 km/h (1 Bft)
29/02/2008 00:00 11,8 C 92 % 1022,6 hPa 0,0 l/m 0,6 km/h (0 Bft) O 0,00 h 0,025 mm 0 W/m 10,5 C 11,8 C 1,2 km/h (1 Bft)
29/02/2008 01:00 11,6 C 92 % 1022,4 hPa 0,0 l/m 0,3 km/h (0 Bft) O 0,00 h 0,000 mm 0 W/m 10,3 C 11,6 C 0,6 km/h (0 Bft)
29/02/2008 02:00 11,3 C 92 % 1022,4 hPa 0,0 l/m 0,0 km/h (0 Bft) N 0,00 h 0,000 mm 0 W/m 10,1 C 11,3 C 0,0 km/h (0 Bft)
29/02/2008 03:00 11,3 C 92 % 1021,7 hPa 0,0 l/m 0,0 km/h (0 Bft) N 0,00 h 0,000 mm 0 W/m 10,0 C 11,3 C 0,0 km/h (0 Bft)
29/02/2008 04:00 11,3 C 92 % 1021,4 hPa 0,0 l/m 1,1 km/h (0 Bft) O 0,00 h 0,000 mm 0 W/m 10,0 C 11,3 C 1,7 km/h (1 Bft)
29/02/2008 05:00 10,9 C 93 % 1021,5 hPa 0,0 l/m 2,3 km/h (1 Bft) O 0,00 h 0,000 mm 0 W/m 9,8 C 10,9 C 3,9 km/h (1 Bft)
29/02/2008 06:00 10,7 C 93 % 1021,6 hPa 0,0 l/m 2,1 km/h (1 Bft) O 0,00 h 0,000 mm 0 W/m 9,7 C 10,7 C 3,5 km/h (1 Bft)
29/02/2008 07:00 10,3 C 93 % 1022,0 hPa 0,0 l/m 0,4 km/h (0 Bft) O 0,00 h 0,000 mm 24 W/m 9,2 C 10,3 C 0,9 km/h (0 Bft)
29/02/2008 08:00 10,8 C 93 % 1022,1 hPa 0,0 l/m 0,0 km/h (0 Bft) N 0,00 h 0,000 mm 82 W/m 9,7 C 10,8 C 0,1 km/h (0 Bft)
29/02/2008 09:00 12,0 C 90 % 1022,4 hPa 0,0 l/m 0,2 km/h (0 Bft) O 0,00 h 0,051 mm 149 W/m 10,5 C 12,0 C 0,7 km/h (0 Bft)
29/02/2008 10:00 13,2 C 84 % 1022,4 hPa 0,0 l/m 4,0 km/h (1 Bft) E-NE 0,22 h 0,076 mm 237 W/m 10,5 C 13,2 C 6,3 km/h (2 Bft)
29/02/2008 11:00 13,7 C 77 % 1022,1 hPa 0,0 l/m 6,9 km/h (2 Bft) S 0,77 h 0,127 mm 414 W/m 9,7 C 13,7 C 10,6 km/h (2 Bft)
29/02/2008 12:00 14,2 C 76 % 1021,7 hPa 0,0 l/m 5,9 km/h (2 Bft) E 0,00 h 0,229 mm 233 W/m 10,0 C 14,2 C 8,4 km/h (2 Bft)
29/02/2008 13:00 13,6 C 78 % 1020,9 hPa 0,0 l/m 3,2 km/h (1 Bft) E-SE 0,00 h 0,127 mm 147 W/m 9,8 C 13,6 C 5,0 km/h (1 Bft)
29/02/2008 14:00 13,6 C 81 % 1020,0 hPa 0,0 l/m 5,7 km/h (1 Bft) E-NE 0,07 h 0,076 mm 183 W/m 10,4 C 13,6 C 7,9 km/h (2 Bft)
29/02/2008 15:00 13,5 C 82 % 1019,6 hPa 0,0 l/m 5,0 km/h (1 Bft) E 0,00 h 0,102 mm 151 W/m 10,5 C 13,5 C 7,4 km/h (2 Bft)
29/02/2008 16:00 12,9 C 83 % 1019,2 hPa 0,0 l/m 4,9 km/h (1 Bft) E-NE 0,00 h 0,102 mm 78 W/m 10,2 C 12,9 C 7,1 km/h (2 Bft)
29/02/2008 17:00 12,5 C 86 % 1019,0 hPa 0,0 l/m 3,6 km/h (1 Bft) E-NE 0,00 h 0,051 mm 21 W/m 10,2 C 12,5 C 5,5 km/h (1 Bft)
29/02/2008 18:00 11,9 C 87 % 1019,0 hPa 0,0 l/m 3,4 km/h (1 Bft) NE 0,00 h 0,025 mm 7 W/m 9,8 C 11,9 C 5,4 km/h (1 Bft)
29/02/2008 19:00 11,2 C 88 % 1019,0 hPa 0,0 l/m 4,1 km/h (1 Bft) NE 0,00 h 0,000 mm 0 W/m 9,3 C 11,2 C 5,8 km/h (2 Bft)
29/02/2008 20:00 10,3 C 90 % 1018,8 hPa 0,0 l/m 3,5 km/h (1 Bft) E-NE 0,00 h 0,025 mm 0 W/m 8,7 C 10,3 C 5,0 km/h (1 Bft)
29/02/2008 21:00 10,4 C 91 % 1018,5 hPa 0,0 l/m 1,3 km/h (1 Bft) E-NE 0,00 h 0,025 mm 0 W/m 9,0 C 10,4 C 2,5 km/h (1 Bft)
29/02/2008 22:00 10,7 C 92 % 1018,1 hPa 0,0 l/m 0,8 km/h (0 Bft) E-NE 0,00 h 0,000 mm 0 W/m 9,4 C 10,7 C 1,6 km/h (1 Bft)
29/02/2008 23:00 10,4 C 92 % 1017,6 hPa 0,0 l/m 4,2 km/h (1 Bft) O-NO 0,00 h 0,025 mm 0 W/m 9,2 C 10,4 C 5,9 km/h (2 Bft)
01/03/2008 00:00 9,8 C 93 % 1016,9 hPa 0,0 l/m 2,7 km/h (1 Bft) NO 0,00 h 0,000 mm 0 W/m 8,7 C 9,7 C 4,5 km/h (1 Bft)
01/03/2008 01:00 9,0 C 93 % 1015,8 hPa 0,0 l/m 2,9 km/h (1 Bft) NO 0,00 h 0,000 mm 0 W/m 8,0 C 9,0 C 4,7 km/h (1 Bft)
01/03/2008 02:00 8,8 C 94 % 1014,4 hPa 0,0 l/m 2,2 km/h (1 Bft) NO 0,00 h 0,000 mm 0 W/m 7,8 C 8,8 C 3,6 km/h (1 Bft)
01/03/2008 03:00 8,8 C 94 % 1013,1 hPa 0,0 l/m 1,9 km/h (1 Bft) N 0,00 h 0,000 mm 0 W/m 7,9 C 8,7 C 3,1 km/h (1 Bft)
01/03/2008 04:00 8,8 C 94 % 1012,0 hPa 0,0 l/m 1,3 km/h (1 Bft) N 0,00 h 0,000 mm 0 W/m 7,9 C 8,7 C 2,3 km/h (1 Bft)
01/03/2008 05:00 9,0 C 94 % 1010,8 hPa 0,0 l/m 3,7 km/h (1 Bft) E-SE 0,00 h 0,000 mm 0 W/m 8,1 C 8,8 C 5,7 km/h (1 Bft)
01/03/2008 06:00 9,4 C 93 % 1009,4 hPa 0,0 l/m 4,3 km/h (1 Bft) N 0,00 h 0,000 mm 0 W/m 8,3 C 9,1 C 7,4 km/h (2 Bft)
01/03/2008 07:00 11,9 C 75 % 1008,2 hPa 0,0 l/m 8,7 km/h (2 Bft) SO 0,00 h 0,000 mm 12 W/m 7,5 C 11,9 C 14,5 km/h (3 Bft)
01/03/2008 08:00 14,0 C 59 % 1007,8 hPa 0,0 l/m 17,4 km/h (3 Bft) O-SO 0,00 h 0,051 mm 36 W/m 6,2 C 14,0 C 26,8 km/h (4 Bft)
01/03/2008 09:00 14,9 C 58 % 1007,8 hPa 0,0 l/m 34,0 km/h (5 Bft) SO 0,00 h 0,127 mm 103 W/m 6,5 C 14,9 C 45,1 km/h (6 Bft)
01/03/2008 10:00 16,2 C 52 % 1006,6 hPa 0,0 l/m 23,2 km/h (4 Bft) O-SO 0,00 h 0,254 mm 143 W/m 6,4 C 16,2 C 33,5 km/h (5 Bft)
01/03/2008 11:00 16,5 C 53 % 1006,3 hPa 0,0 l/m 43,3 km/h (6 Bft) O-SO 0,00 h 0,229 mm 229 W/m 7,0 C 16,5 C 57,6 km/h (7 Bft)
01/03/2008 12:00 17,2 C 52 % 1005,3 hPa 0,0 l/m 42,1 km/h (6 Bft) O-SO 0,07 h 6,452 mm 308 W/m 7,1 C 17,2 C 57,5 km/h (7 Bft)
01/03/2008 13:00 18,6 C 46 % 1004,2 hPa 0,0 l/m 36,0 km/h (5 Bft) O-SO 0,00 h 6,452 mm 274 W/m 6,8 C 18,6 C 50,1 km/h (7 Bft)
01/03/2008 14:00 15,9 C 65 % 1004,6 hPa 0,0 l/m 10,9 km/h (2 Bft) E-NE 0,00 h 0,432 mm 264 W/m 9,3 C 15,9 C 16,2 km/h (3 Bft)
01/03/2008 15:00 14,4 C 75 % 1005,3 hPa 0,0 l/m 7,1 km/h (2 Bft) E 0,02 h 0,203 mm 216 W/m 9,9 C 14,4 C 10,4 km/h (2 Bft)
01/03/2008 16:00 13,5 C 80 % 1005,5 hPa 0,0 l/m 6,1 km/h (2 Bft) E 0,40 h 0,127 mm 175 W/m 10,1 C 13,5 C 9,5 km/h (2 Bft)
01/03/2008 17:00 12,5 C 84 % 1006,3 hPa 0,0 l/m 5,1 km/h (1 Bft) E 0,00 h 0,102 mm 65 W/m 9,9 C 12,5 C 8,4 km/h (2 Bft)
01/03/2008 18:00 11,4 C 88 % 1007,3 hPa 0,0 l/m 2,4 km/h (1 Bft) SE 0,00 h 0,051 mm 10 W/m 9,6 C 11,4 C 4,2 km/h (1 Bft)
01/03/2008 19:00 11,5 C 91 % 1007,8 hPa 0,0 l/m 2,2 km/h (1 Bft) E-NE 0,00 h 0,000 mm 0 W/m 10,1 C 11,5 C 3,8 km/h (1 Bft)
01/03/2008 20:00 11,2 C 92 % 1008,0 hPa 0,0 l/m 0,2 km/h (0 Bft) E-NE 0,00 h 0,025 mm 0 W/m 10,0 C 11,2 C 0,7 km/h (0 Bft)
01/03/2008 21:00 10,8 C 93 % 1008,5 hPa 0,0 l/m 0,5 km/h (0 Bft) E-NE 0,00 h 0,000 mm 0 W/m 9,7 C 10,8 C 1,2 km/h (1 Bft)
01/03/2008 22:00 10,1 C 93 % 1009,1 hPa 0,0 l/m 4,5 km/h (1 Bft) O-NO 0,00 h 0,000 mm 0 W/m 9,0 C 10,0 C 6,5 km/h (2 Bft)
01/03/2008 23:00 9,8 C 94 % 1009,8 hPa 0,0 l/m 3,1 km/h (1 Bft) N-NO 0,00 h 0,025 mm 0 W/m 8,9 C 9,7 C 4,8 km/h (1 Bft)
02/03/2008 00:00 9,4 C 94 % 1010,3 hPa 0,0 l/m 4,9 km/h (1 Bft) NO 0,00 h 0,000 mm 0 W/m 8,5 C 9,0 C 7,3 km/h (2 Bft)
02/03/2008 01:00 9,5 C 95 % 1010,3 hPa 0,0 l/m 7,0 km/h (2 Bft) O-NO 0,00 h 0,000 mm 0 W/m 8,6 C 8,6 C 9,4 km/h (2 Bft)
02/03/2008 02:00 9,3 C 95 % 1010,2 hPa 0,2 l/m 8,6 km/h (2 Bft) O 0,00 h 0,025 mm 0 W/m 8,5 C 8,1 C 11,2 km/h (2 Bft)
02/03/2008 03:00 9,8 C 94 % 1010,3 hPa 0,0 l/m 6,7 km/h (2 Bft) O 0,00 h 0,025 mm 0 W/m 8,9 C 9,0 C 8,4 km/h (2 Bft)
02/03/2008 04:00 9,9 C 93 % 1010,9 hPa 0,0 l/m 2,6 km/h (1 Bft) O 0,00 h 0,025 mm 0 W/m 8,8 C 9,8 C 3,6 km/h (1 Bft)
02/03/2008 05:00 9,4 C 92 % 1011,6 hPa 0,0 l/m 0,8 km/h (0 Bft) O 0,00 h 0,000 mm 0 W/m 8,1 C 9,4 C 1,1 km/h (1 Bft)
02/03/2008 06:00 9,4 C 92 % 1012,3 hPa 0,0 l/m 3,5 km/h (1 Bft) O 0,00 h 0,000 mm 0 W/m 8,2 C 9,2 C 4,5 km/h (1 Bft)
02/03/2008 07:00 9,6 C 92 % 1012,8 hPa 0,0 l/m 3,2 km/h (1 Bft) O 0,50 h 0,000 mm 45 W/m 8,3 C 9,4 C 4,3 km/h (1 Bft)
02/03/2008 08:00 11,6 C 88 % 1013,2 hPa 0,0 l/m 2,1 km/h (1 Bft) O 1,00 h 0,025 mm 199 W/m 9,6 C 11,6 C 3,5 km/h (1 Bft)
02/03/2008 09:00 14,3 C 76 % 1013,1 hPa 0,0 l/m 0,5 km/h (0 Bft) O-SO 1,00 h 0,102 mm 366 W/m 10,1 C 14,3 C 1,5 km/h (1 Bft)
02/03/2008 10:00 15,6 C 68 % 1012,9 hPa 0,0 l/m 3,0 km/h (1 Bft) S 1,00 h 0,203 mm 472 W/m 9,7 C 15,6 C 5,4 km/h (1 Bft)
02/03/2008 11:00 17,7 C 61 % 1012,7 hPa 0,0 l/m 5,8 km/h (2 Bft) E 1,00 h 0,254 mm 599 W/m 10,0 C 17,7 C 8,8 km/h (2 Bft)
02/03/2008 12:00 16,9 C 68 % 1012,6 hPa 0,0 l/m 11,1 km/h (2 Bft) E 1,00 h 0,356 mm 632 W/m 11,0 C 16,9 C 15,6 km/h (3 Bft)
02/03/2008 13:00 16,2 C 73 % 1012,2 hPa 0,0 l/m 9,0 km/h (2 Bft) E 1,00 h 0,381 mm 606 W/m 11,4 C 16,2 C 13,5 km/h (3 Bft)
02/03/2008 14:00 15,4 C 77 % 1011,7 hPa 0,0 l/m 7,8 km/h (2 Bft) E 0,85 h 0,356 mm 465 W/m 11,5 C 15,4 C 11,9 km/h (2 Bft)
02/03/2008 15:00 15,0 C 78 % 1011,4 hPa 0,0 l/m 4,8 km/h (1 Bft) E 0,72 h 0,254 mm 387 W/m 11,1 C 15,0 C 7,6 km/h (2 Bft)
02/03/2008 16:00 14,4 C 77 % 1011,0 hPa 0,0 l/m 2,5 km/h (1 Bft) E-SE 0,70 h 0,229 mm 207 W/m 10,4 C 14,4 C 4,3 km/h (1 Bft)
02/03/2008 17:00 13,7 C 77 % 1010,8 hPa 0,0 l/m 3,0 km/h (1 Bft) E-NE 0,85 h 0,127 mm 85 W/m 9,8 C 13,7 C 4,6 km/h (1 Bft)
02/03/2008 18:00 12,1 C 84 % 1010,9 hPa 0,0 l/m 2,3 km/h (1 Bft) E-NE 0,18 h 0,051 mm 12 W/m 9,4 C 12,1 C 3,8 km/h (1 Bft)
02/03/2008 19:00 10,9 C 85 % 1011,3 hPa 0,0 l/m 0,3 km/h (0 Bft) E-NE 0,00 h 0,000 mm 0 W/m 8,5 C 10,9 C 0,8 km/h (0 Bft)
02/03/2008 20:00 10,5 C 87 % 1011,3 hPa 0,0 l/m 0,4 km/h (0 Bft) E-NE 0,00 h 0,025 mm 0 W/m 8,4 C 10,5 C 0,7 km/h (0 Bft)
02/03/2008 21:00 10,5 C 89 % 1011,6 hPa 0,0 l/m 1,2 km/h (1 Bft) E-NE 0,00 h 0,025 mm 0 W/m 8,7 C 10,5 C 2,0 km/h (1 Bft)
02/03/2008 22:00 10,8 C 91 % 1012,2 hPa 0,0 l/m 1,5 km/h (1 Bft) E-NE 0,00 h 0,025 mm 0 W/m 9,4 C 10,8 C 2,9 km/h (1 Bft)
02/03/2008 23:00 11,1 C 92 % 1012,1 hPa 0,0 l/m 1,2 km/h (1 Bft) SE 0,00 h 0,000 mm 0 W/m 9,9 C 11,1 C 1,9 km/h (1 Bft)
Min-Date _ 25/02/08 01/03/08 01/03/08 - 25/02/08 - - - - 25/02/08 25/02/08 25/02/08
_ Min-Heure 06:46 13:49 13:15 - 00:17 - - - - 06:46 01:34 02:58
Minimum _ 5,9 C 43 % 1004,0 hPa - 0,0 km/h (0 Bft) - - - - 3,7 C 5,0 C 0,0 km/h (0 Bft)
Max-Date _ 01/03/08 02/03/08 25/02/08 28/02/08 01/03/08 - 25/02/08 01/03/08 27/02/08 28/02/08 01/03/08 01/03/08
_ Max-Heure 13:58 02:18 00:30 10:16 11:57 - 07:26 12:00 12:19 12:52 13:58 11:47
Maximum _ 19,4 C 97 % 1026,9 hPa 0,6 l/m 54,7 km/h
O-SO (7 Bft)
- 0,02 h 6,452 mm 780 W/m 12,2 C 19,4 C 69,2 km/h
O-SO (8 Bft)
Moyenne _ 11,4 C 84 % 1017,4 hPa #1,0 l/m 3,9 km/h (1 Bft) E #22:37 h #23,049 mm 185 W/m 8,7 C 11,3 C 6,0 km/h (2 Bft)
Roquefort les pins